Time;durP1;ratioP1;P1;durP2;ratioP2;P2;SDS_P1;SDS_P2;PMS_P1;PMS_P2;Temp;Humidity;BMP_temperature;BMP_pressure;BME280_temperature;BME280_humidity;BME280_pressure;Samples;Min_cycle;Max_cycle;Signal;HPM_P1;HPM_P2
2022/07/22 00:00:06;;;;;;;4.92;3.83;;;;;;;20.44;68.80;99395.13;1769108;80;21017;-66
2022/07/22 00:02:32;;;;;;;3.92;3.52;;;;;;;20.36;69.07;99388.27;1757838;80;21801;-66
2022/07/22 00:04:59;;;;;;;6.12;4.42;;;;;;;20.35;69.19;99389.27;1779779;79;21592;-66
2022/07/22 00:07:26;;;;;;;6.67;3.98;;;;;;;20.31;69.24;99397.19;1770260;80;20992;-66
2022/07/22 00:09:53;;;;;;;4.40;4.00;;;;;;;20.23;69.41;99394.69;1757232;80;21041;-66
2022/07/22 00:12:21;;;;;;;4.17;3.87;;;;;;;20.23;69.93;99400.03;1764742;80;21517;-67
2022/07/22 00:14:48;;;;;;;5.55;3.62;;;;;;;20.18;69.99;99407.59;1769407;79;22104;-66
2022/07/22 00:17:15;;;;;;;3.50;3.20;;;;;;;20.17;69.89;99411.72;1767503;80;20994;-67
2022/07/22 00:19:42;;;;;;;3.98;3.67;;;;;;;20.12;70.16;99410.79;1765487;80;21504;-67
2022/07/22 00:22:09;;;;;;;3.33;3.12;;;;;;;20.06;70.47;99411.33;1765698;80;21542;-68
2022/07/22 00:24:35;;;;;;;5.37;3.70;;;;;;;20.06;70.70;99412.66;1754621;80;21565;-68
2022/07/22 00:27:02;;;;;;;4.47;3.67;;;;;;;20.05;70.84;99410.95;1768044;80;21811;-67
2022/07/22 00:29:30;;;;;;;8.38;4.60;;;;;;;20.07;70.75;99409.50;1761957;80;21480;-66
2022/07/22 00:31:56;;;;;;;8.48;4.33;;;;;;;20.00;71.01;99410.03;1766371;80;21491;-67
2022/07/22 00:34:23;;;;;;;6.13;4.70;;;;;;;19.95;71.28;99411.41;1769849;80;21517;-67
2022/07/22 00:36:51;;;;;;;;;;;;;;;19.93;71.82;99419.53;1749182;80;21086;-67
2022/07/22 00:39:18;;;;;;;5.33;4.15;;;;;;;19.93;72.24;99419.53;1752731;80;21818;-67
2022/07/22 00:41:45;;;;;;;4.62;4.22;;;;;;;19.87;71.83;99411.20;1756339;80;21399;-66
2022/07/22 00:44:12;;;;;;;6.25;5.30;;;;;;;19.97;71.98;99418.29;1758981;80;21537;-67
2022/07/22 00:46:39;;;;;;;5.00;4.60;;;;;;;19.84;72.07;99414.48;1771027;80;27033;-67
2022/07/22 00:49:07;;;;;;;5.97;5.33;;;;;;;19.84;72.39;99421.16;1769647;80;21495;-67
2022/07/22 00:51:35;;;;;;;7.28;4.90;;;;;;;19.80;72.69;99417.55;1760482;80;21825;-68
2022/07/22 00:54:03;;;;;;;5.22;4.65;;;;;;;19.76;72.69;99417.43;1751166;80;21574;-68
2022/07/22 00:56:29;;;;;;;5.17;4.20;;;;;;;19.81;72.70;99417.40;1752745;80;21426;-67
2022/07/22 00:58:58;;;;;;;;;;;;;;;19.80;72.71;99419.72;1763841;80;21518;-68
2022/07/22 01:01:25;;;;;;;7.12;4.72;;;;;;;19.74;73.14;99418.92;1761729;80;20453;-67
2022/07/22 01:03:52;;;;;;;5.20;4.70;;;;;;;19.68;73.29;99417.21;1762592;80;21547;-68
2022/07/22 01:06:19;;;;;;;6.08;5.17;;;;;;;19.67;73.45;99417.70;1757093;80;21016;-68
2022/07/22 01:08:46;;;;;;;5.40;4.90;;;;;;;19.67;73.43;99424.88;1757563;80;21821;-67
2022/07/22 01:11:16;;;;;;;5.03;4.53;;;;;;;19.69;73.35;99420.25;1748216;80;21847;-68
2022/07/22 01:13:44;;;;;;;6.05;5.00;;;;;;;19.70;73.43;99420.59;1753973;80;21493;-67
2022/07/22 01:16:11;;;;;;;5.12;4.65;;;;;;;19.67;73.17;99420.88;1765857;80;21769;-67
2022/07/22 01:18:39;;;;;;;5.67;5.08;;;;;;;19.62;73.43;99415.41;1755286;80;21400;-67
2022/07/22 01:21:07;;;;;;;5.83;5.25;;;;;;;19.57;73.56;99414.11;1765253;80;21476;-66
2022/07/22 01:23:35;;;;;;;5.20;4.70;;;;;;;19.58;73.61;99415.31;1753586;80;21589;-67
2022/07/22 01:26:02;;;;;;;5.50;5.05;;;;;;;19.60;73.32;99411.20;1761165;80;20950;-67
2022/07/22 01:28:31;;;;;;;5.30;4.75;;;;;;;19.61;73.11;99419.07;1758655;80;21041;-64
2022/07/22 01:30:58;;;;;;;8.20;4.42;;;;;;;19.59;73.15;99417.48;1747676;80;21501;-66
2022/07/22 01:33:25;;;;;;;5.12;4.58;;;;;;;19.55;72.94;99419.59;1763416;80;21538;-65
2022/07/22 01:35:52;;;;;;;5.83;4.70;;;;;;;19.48;73.28;99422.87;1756545;80;21546;-65
2022/07/22 01:38:19;;;;;;;5.17;4.55;;;;;;;19.48;73.33;99422.41;1772429;80;21520;-66
2022/07/22 01:40:46;;;;;;;5.92;4.53;;;;;;;19.52;73.00;99420.33;1757813;80;21823;-66
2022/07/22 01:43:17;;;;;;;5.53;4.58;;;;;;;19.49;72.91;99421.91;1761321;80;21410;-66
2022/07/22 01:45:42;;;;;;;5.40;4.22;;;;;;;19.47;72.92;99422.53;1759152;80;21581;-66
2022/07/22 01:48:09;;;;;;;10.93;4.80;;;;;;;19.42;72.82;99428.23;1768338;80;21431;-66
2022/07/22 01:50:36;;;;;;;4.78;4.47;;;;;;;19.41;72.81;99433.22;1765696;80;21545;-66
2022/07/22 01:53:03;;;;;;;4.67;4.27;;;;;;;19.33;72.82;99430.35;1759094;80;21764;-66
2022/07/22 01:55:30;;;;;;;4.75;4.28;;;;;;;19.28;72.87;99432.54;1762630;80;22144;-66
2022/07/22 01:57:58;;;;;;;6.20;4.62;;;;;;;19.24;72.91;99435.94;1756723;80;21438;-66
2022/07/22 02:00:27;;;;;;;5.75;5.20;;;;;;;19.18;73.09;99441.29;1762719;80;21452;-67
2022/07/22 02:02:53;;;;;;;5.35;4.58;;;;;;;19.10;73.42;99441.55;1761314;80;21491;-66
2022/07/22 02:05:20;;;;;;;8.83;5.40;;;;;;;19.08;73.66;99449.69;1771583;80;22219;-67
2022/07/22 02:07:47;;;;;;;6.80;5.30;;;;;;;19.09;73.90;99449.19;1767101;80;21311;-66
2022/07/22 02:10:14;;;;;;;7.07;5.30;;;;;;;19.08;73.81;99456.81;1757145;80;21510;-67
2022/07/22 02:12:41;;;;;;;5.90;4.70;;;;;;;19.03;74.25;99452.70;1765192;80;21438;-67
2022/07/22 02:15:10;;;;;;;5.30;4.77;;;;;;;19.04;74.23;99450.42;1752098;80;21434;-67
2022/07/22 02:17:39;;;;;;;5.37;4.97;;;;;;;19.02;74.17;99452.36;1759585;80;21704;-66
2022/07/22 02:20:10;;;;;;;8.63;4.85;;;;;;;18.99;74.25;99450.43;1757005;80;21415;-66
2022/07/22 02:22:37;;;;;;;4.65;4.25;;;;;;;19.14;74.38;99447.01;1769040;80;21542;-66
2022/07/22 02:25:04;;;;;;;5.35;4.58;;;;;;;19.03;73.98;99441.21;1761583;80;21808;-66
2022/07/22 02:27:31;;;;;;;6.87;5.17;;;;;;;18.96;74.44;99443.52;1764365;80;21446;-67
2022/07/22 02:29:58;;;;;;;5.12;4.62;;;;;;;18.94;74.46;99449.45;1756649;80;21908;-67
2022/07/22 02:32:25;;;;;;;5.70;5.05;;;;;;;19.04;74.36;99445.55;1750410;80;21434;-68
2022/07/22 02:34:52;;;;;;;6.55;4.70;;;;;;;19.04;73.97;99445.09;1755511;80;21594;-68
2022/07/22 02:37:20;;;;;;;7.78;4.28;;;;;;;19.03;73.77;99450.54;1761043;80;21553;-68
2022/07/22 02:39:47;;;;;;;7.05;5.25;;;;;;;18.95;73.92;99461.81;1753124;80;21045;-68
2022/07/22 02:42:14;;;;;;;5.70;5.20;;;;;;;18.89;74.14;99458.29;1770502;80;22209;-68
2022/07/22 02:44:41;;;;;;;7.23;5.07;;;;;;;18.88;74.30;99460.61;1753661;80;21446;-68
2022/07/22 02:47:07;;;;;;;5.15;4.75;;;;;;;18.93;74.24;99465.55;1755953;80;21490;-69
2022/07/22 02:49:34;;;;;;;6.35;5.00;;;;;;;18.91;74.41;99466.16;1762784;80;21156;-69
2022/07/22 02:52:01;;;;;;;7.37;5.10;;;;;;;18.94;74.32;99469.92;1761408;80;21405;-71
2022/07/22 02:54:28;;;;;;;7.70;5.42;;;;;;;18.92;74.61;99477.20;1745467;80;21870;-68
2022/07/22 02:56:54;;;;;;;6.70;4.95;;;;;;;18.90;74.91;99475.14;1751704;80;21588;-69
2022/07/22 02:59:23;;;;;;;6.60;5.95;;;;;;;18.92;75.00;99479.36;1764571;80;21030;-69
2022/07/22 03:01:50;;;;;;;11.00;5.83;;;;;;;18.90;75.25;99474.65;1760064;80;21592;-69
2022/07/22 03:04:17;;;;;;;7.08;5.90;;;;;;;18.89;75.56;99481.42;1756222;80;21576;-66
2022/07/22 03:06:43;;;;;;;5.08;4.58;;;;;;;18.88;75.87;99481.08;1752487;80;21889;-68
2022/07/22 03:09:12;;;;;;;6.80;5.80;;;;;;;18.85;75.97;99482.16;1758641;80;21458;-68
2022/07/22 03:11:42;;;;;;;5.90;5.40;;;;;;;18.81;76.30;99488.70;1758246;80;21451;-68
2022/07/22 03:14:09;;;;;;;6.20;5.60;;;;;;;18.83;76.25;99487.59;1739299;80;21021;-68
2022/07/22 03:16:37;;;;;;;6.47;5.90;;;;;;;18.84;76.08;99485.31;1773379;79;21523;-68
2022/07/22 03:19:04;;;;;;;7.23;5.50;;;;;;;18.85;76.26;99491.47;1764204;80;21863;-68
2022/07/22 03:21:31;;;;;;;11.50;5.97;;;;;;;18.93;76.16;99490.40;1760725;80;21430;-68
2022/07/22 03:23:58;;;;;;;6.03;5.50;;;;;;;18.96;76.34;99484.80;1755542;80;21001;-67
2022/07/22 03:26:25;;;;;;;6.80;5.90;;;;;;;19.01;76.37;99485.29;1752559;80;21522;-67
2022/07/22 03:28:52;;;;;;;6.63;5.60;;;;;;;19.08;76.38;99481.66;1751073;80;21551;-67
2022/07/22 03:31:19;;;;;;;6.10;5.60;;;;;;;19.31;75.61;99468.25;1745658;80;22128;-67
2022/07/22 03:33:45;;;;;;;9.08;6.40;;;;;;;19.19;75.97;99477.64;1746918;80;21482;-67
2022/07/22 03:36:12;;;;;;;9.38;6.67;;;;;;;19.19;76.15;99470.11;1752596;80;21432;-67
2022/07/22 03:38:40;;;;;;;8.73;6.12;;;;;;;19.25;76.27;99478.96;1749066;80;21437;-67
2022/07/22 03:41:07;;;;;;;6.57;5.97;;;;;;;19.29;76.27;99476.40;1758610;80;21518;-67
2022/07/22 03:43:35;;;;;;;6.28;5.60;;;;;;;19.32;76.52;99482.79;1755974;80;21829;-68
2022/07/22 03:46:02;;;;;;;6.78;5.00;;;;;;;19.36;76.67;99479.39;1767589;80;21437;-68
2022/07/22 03:48:29;;;;;;;7.00;5.67;;;;;;;19.44;76.60;99476.47;1742457;80;21022;-68
2022/07/22 03:50:56;;;;;;;6.47;5.90;;;;;;;19.43;76.81;99478.76;1740151;80;21092;-68
2022/07/22 03:53:24;;;;;;;6.25;5.60;;;;;;;19.53;76.78;99481.51;1742101;80;21625;-67
2022/07/22 03:55:51;;;;;;;6.42;5.60;;;;;;;19.60;76.67;99475.19;1755681;80;21876;-68
2022/07/22 03:58:19;;;;;;;6.12;5.50;;;;;;;19.68;76.47;99479.39;1752040;80;21514;-67
2022/07/22 04:00:45;;;;;;;6.37;5.70;;;;;;;19.79;76.15;99481.20;1749531;80;21547;-68
2022/07/22 04:03:12;;;;;;;5.83;5.33;;;;;;;19.82;75.94;99482.29;1757420;80;21439;-68
2022/07/22 04:05:57;;;;;;;5.80;4.87;;;;;;;19.91;75.60;99475.31;1751966;80;21632;-67
2022/07/22 04:08:35;;;;;;;8.18;5.08;;;;;;;20.01;75.19;99483.75;1760703;80;25590;-68
2022/07/22 04:11:02;;;;;;;8.00;5.35;;;;;;;20.06;75.44;99489.19;1749993;80;21447;-67
2022/07/22 04:13:29;;;;;;;7.62;5.08;;;;;;;20.05;75.60;99488.84;1752833;80;21433;-67
2022/07/22 04:15:59;;;;;;;7.20;4.85;;;;;;;20.13;75.30;99493.87;1750795;80;21434;-67
2022/07/22 04:18:32;;;;;;;8.75;5.05;;;;;;;20.25;75.12;99494.67;1745652;80;21528;-67
2022/07/22 04:21:00;;;;;;;8.23;4.35;;;;;;;20.26;74.86;99499.51;1755064;80;21903;-67
2022/07/22 04:23:31;;;;;;;6.60;4.60;;;;;;;20.30;74.49;99494.27;1751485;80;21413;-67
2022/07/22 04:26:10;;;;;;;7.15;4.90;;;;;;;20.47;73.15;99490.97;1758013;80;20958;-67
2022/07/22 04:28:37;;;;;;;7.03;4.43;;;;;;;20.47;73.15;99490.97;1759656;80;21447;-68
2022/07/22 04:31:05;;;;;;;8.30;4.67;;;;;;;20.50;73.39;99492.55;1771628;80;21428;-68
2022/07/22 04:33:33;;;;;;;5.92;4.92;;;;;;;20.58;73.36;99492.72;1751177;80;21794;-67
2022/07/22 04:36:00;;;;;;;4.65;4.25;;;;;;;20.65;73.08;99495.25;1759106;80;21541;-65
2022/07/22 04:38:27;;;;;;;4.92;4.50;;;;;;;20.71;72.76;99496.05;1745327;80;21512;-65
2022/07/22 04:40:57;;;;;;;8.43;4.65;;;;;;;20.72;72.52;99493.74;1749609;80;21512;-65
2022/07/22 04:43:24;;;;;;;6.35;5.00;;;;;;;20.72;72.12;99495.55;1753578;80;21514;-65
2022/07/22 04:45:51;;;;;;;8.25;4.62;;;;;;;20.78;72.00;99485.68;1756137;80;21876;-65
2022/07/22 04:48:19;;;;;;;4.78;3.92;;;;;;;21.04;71.88;99490.06;1763571;80;21016;-65
2022/07/22 04:50:46;;;;;;;7.33;5.60;;;;;;;21.04;71.88;99490.06;1763788;79;21613;-65
2022/07/22 04:53:14;;;;;;;4.90;4.50;;;;;;;21.08;71.01;99479.91;1758774;80;21440;-65
2022/07/22 04:55:41;;;;;;;7.25;4.95;;;;;;;21.15;70.26;99484.60;1746817;80;21447;-65
2022/07/22 04:58:07;;;;;;;4.33;3.72;;;;;;;21.02;70.79;99492.49;1765541;80;21830;-65
2022/07/22 05:00:34;;;;;;;4.83;4.33;;;;;;;21.02;70.79;99492.49;1758020;80;21558;-65
2022/07/22 05:03:01;;;;;;;5.75;5.00;;;;;;;21.05;71.01;99498.91;1746354;80;21033;-64
2022/07/22 05:05:28;;;;;;;4.80;4.45;;;;;;;21.03;71.03;99499.55;1755239;80;20996;-64
2022/07/22 05:07:55;;;;;;;8.30;4.80;;;;;;;21.13;70.21;99492.38;1754180;80;21512;-63
2022/07/22 05:10:23;;;;;;;4.92;4.53;;;;;;;21.12;69.60;99490.20;1691658;83;21438;-66
2022/07/22 05:12:50;;;;;;;5.40;4.90;;;;;;;21.19;69.80;99500.72;1684231;83;21521;-65
2022/07/22 05:15:16;;;;;;;6.78;4.60;;;;;;;21.31;68.81;99501.44;1759063;80;21614;-67
2022/07/22 05:17:43;;;;;;;7.33;4.43;;;;;;;21.31;68.81;99501.44;1758500;80;21605;-64
2022/07/22 05:20:13;;;;;;;4.90;4.40;;;;;;;21.30;68.74;99493.05;1763850;80;21955;-64
2022/07/22 05:22:40;;;;;;;5.10;4.60;;;;;;;21.33;67.93;99494.62;1752880;80;21422;-65
2022/07/22 05:25:09;;;;;;;4.60;3.92;;;;;;;21.41;67.85;99485.90;1766842;79;21431;-64
2022/07/22 05:27:37;;;;;;;8.33;4.70;;;;;;;21.41;67.53;99484.56;1730438;80;21506;-66
2022/07/22 05:30:06;;;;;;;6.23;4.33;;;;;;;21.48;67.72;99487.07;1756260;79;21514;-66
2022/07/22 05:32:35;;;;;;;4.40;4.00;;;;;;;21.61;67.59;99490.81;1747471;80;21773;-65
2022/07/22 05:35:02;;;;;;;4.33;3.87;;;;;;;21.71;67.01;99492.48;1760577;80;21679;-66
2022/07/22 05:37:30;;;;;;;5.70;3.60;;;;;;;21.86;66.02;99483.55;1760101;80;21497;-66
2022/07/22 05:39:57;;;;;;;4.50;4.10;;;;;;;21.86;66.02;99483.55;1765062;79;21576;-66
2022/07/22 05:42:24;;;;;;;4.58;3.92;;;;;;;21.96;65.76;99483.53;1769139;79;21551;-66
2022/07/22 05:44:52;;;;;;;4.25;3.85;;;;;;;22.01;65.40;99487.97;1761234;80;27090;-66
2022/07/22 05:47:18;;;;;;;5.28;3.75;;;;;;;22.13;64.42;99481.95;1779306;79;21847;-65
2022/07/22 05:49:45;;;;;;;3.77;3.12;;;;;;;22.18;64.33;99481.54;1752054;80;21628;-66
2022/07/22 05:52:12;;;;;;;3.70;3.40;;;;;;;22.27;63.56;99479.38;1762758;79;21475;-66
2022/07/22 05:54:39;;;;;;;4.65;3.95;;;;;;;22.40;62.81;99477.72;1757754;79;21013;-67
2022/07/22 05:57:09;;;;;;;6.40;3.20;;;;;;;22.55;62.19;99481.11;1750347;80;21644;-67
2022/07/22 05:59:38;;;;;;;3.47;3.17;;;;;;;22.67;61.60;99484.44;1757859;80;21827;-66
2022/07/22 06:02:05;;;;;;;9.08;3.67;;;;;;;22.84;61.10;99472.59;1768340;79;21616;-65
2022/07/22 06:04:40;;;;;;;3.60;3.30;;;;;;;22.90;61.27;99478.19;1753951;80;21581;-66
2022/07/22 06:07:07;;;;;;;3.85;3.25;;;;;;;22.90;61.27;99478.19;1762484;79;21623;-65
2022/07/22 06:09:33;;;;;;;3.50;3.20;;;;;;;23.03;60.54;99477.88;1759368;79;21466;-65
2022/07/22 06:12:03;;;;;;;3.15;2.90;;;;;;;23.14;60.12;99471.47;1771213;79;20942;-65
2022/07/22 06:14:32;;;;;;;3.30;2.40;;;;;;;23.32;59.98;99471.52;1762466;79;21578;-65
2022/07/22 06:16:59;;;;;;;7.10;3.30;;;;;;;23.50;58.80;99468.83;1771895;79;21570;-64
2022/07/22 06:19:29;;;;;;;5.20;2.90;;;;;;;23.59;58.94;99469.25;1757033;80;21527;-65
2022/07/22 06:21:56;;;;;;;2.58;2.45;;;;;;;23.66;58.30;99466.81;1754228;80;21513;-64
2022/07/22 06:24:23;;;;;;;2.92;2.72;;;;;;;23.71;58.66;99461.80;1759555;80;21939;-65
2022/07/22 06:26:51;;;;;;;4.67;2.83;;;;;;;23.83;57.79;99459.27;1762226;80;21507;-67
2022/07/22 06:29:17;;;;;;;2.60;2.40;;;;;;;23.89;56.93;99455.95;1753851;80;21714;-66
2022/07/22 06:31:46;;;;;;;4.83;3.15;;;;;;;23.99;56.65;99456.36;1755330;80;21464;-64
2022/07/22 06:34:13;;;;;;;3.08;2.80;;;;;;;24.05;56.81;99467.33;1763003;80;21538;-64
2022/07/22 06:36:41;;;;;;;6.10;2.60;;;;;;;24.05;56.13;99460.61;1744970;80;21846;-64
2022/07/22 06:39:08;;;;;;;4.12;2.80;;;;;;;24.06;56.33;99453.39;1767524;80;21561;-64
2022/07/22 06:41:40;;;;;;;5.25;2.12;;;;;;;24.11;56.41;99464.52;1764423;80;21609;-66
2022/07/22 06:44:25;;;;;;;2.83;2.00;;;;;;;24.22;54.96;99437.87;1761910;80;21497;-65
2022/07/22 06:46:57;;;;;;;5.90;1.75;;;;;;;24.22;53.52;99439.22;1725341;80;21628;-64
2022/07/22 06:49:23;;;;;;;6.40;1.67;;;;;;;24.33;53.33;99448.86;1749499;80;21870;-66
2022/07/22 06:51:50;;;;;;;2.98;2.05;;;;;;;24.35;52.37;99439.63;1765042;80;21514;-66
2022/07/22 06:54:17;;;;;;;1.70;1.60;;;;;;;24.48;52.39;99439.20;1746180;80;21422;-65
2022/07/22 06:56:44;;;;;;;3.10;1.57;;;;;;;24.56;51.49;99443.29;1748374;80;21550;-64
2022/07/22 06:59:13;;;;;;;3.80;1.70;;;;;;;24.63;51.37;99438.13;1754948;80;21520;-65
2022/07/22 07:01:40;;;;;;;3.72;1.70;;;;;;;24.78;51.43;99448.60;1751331;80;21879;-66
2022/07/22 07:04:06;;;;;;;1.65;1.37;;;;;;;24.89;50.72;99450.16;1759636;79;21502;-66
2022/07/22 07:06:34;;;;;;;5.75;1.70;;;;;;;25.15;49.93;99453.28;1753360;80;21547;-63
2022/07/22 07:09:09;;;;;;;2.95;1.90;;;;;;;25.15;49.89;99447.39;1688901;83;21457;-64
2022/07/22 07:11:37;;;;;;;1.67;1.50;;;;;;;25.21;49.08;99445.89;1721761;81;21523;-63
2022/07/22 07:14:05;;;;;;;1.95;1.45;;;;;;;25.41;48.40;99443.75;1726604;80;21856;-64
2022/07/22 07:16:33;;;;;;;2.33;1.02;;;;;;;25.20;47.15;99447.74;1719020;82;21492;-63
2022/07/22 07:18:59;;;;;;;4.30;1.45;;;;;;;25.16;46.87;99449.56;1705275;82;21581;-66
2022/07/22 07:21:27;;;;;;;3.85;1.40;;;;;;;25.19;47.28;99454.12;1703679;82;21017;-65
2022/07/22 07:23:53;;;;;;;1.40;1.30;;;;;;;25.30;47.57;99443.59;1706035;83;21080;-65
2022/07/22 07:26:20;;;;;;;4.85;1.20;;;;;;;25.45;47.30;99444.61;1701252;83;21909;-65
2022/07/22 07:28:47;;;;;;;1.67;1.50;;;;;;;25.43;46.57;99444.45;1704571;83;21548;-64
2022/07/22 07:31:16;;;;;;;1.57;1.37;;;;;;;25.46;46.49;99449.48;1698084;83;21554;-65
2022/07/22 07:33:44;;;;;;;4.40;1.17;;;;;;;25.53;46.03;99454.55;1709735;83;21599;-64
2022/07/22 07:36:11;;;;;;;3.35;1.17;;;;;;;25.52;45.46;99449.32;1696457;83;21476;-65
2022/07/22 07:38:40;;;;;;;1.90;1.30;;;;;;;25.63;45.57;99442.27;1692385;83;21847;-65
2022/07/22 07:41:08;;;;;;;3.80;1.32;;;;;;;25.69;44.77;99444.79;1700928;83;21061;-65
2022/07/22 07:43:35;;;;;;;1.50;1.40;;;;;;;25.72;44.28;99447.16;1711938;83;21581;-65
2022/07/22 07:46:03;;;;;;;2.67;1.10;;;;;;;25.79;43.95;99444.97;1700890;81;21530;-65
2022/07/22 07:48:31;;;;;;;2.35;1.20;;;;;;;25.96;43.70;99445.00;1702375;81;21522;-64
2022/07/22 07:50:58;;;;;;;3.90;1.40;;;;;;;26.01;43.16;99438.57;1695949;83;21503;-65
2022/07/22 07:53:25;;;;;;;3.62;1.32;;;;;;;25.99;43.29;99444.16;1730745;81;21487;-65
2022/07/22 07:55:53;;;;;;;2.75;1.25;;;;;;;25.96;41.87;99438.27;1697141;83;21511;-65
2022/07/22 07:58:19;;;;;;;3.20;1.15;;;;;;;26.03;41.83;99437.41;1723656;81;21598;-65
2022/07/22 08:00:47;;;;;;;2.27;1.15;;;;;;;26.06;41.55;99435.38;1720082;81;21648;-65
2022/07/22 08:03:15;;;;;;;2.20;1.00;;;;;;;26.09;41.48;99450.70;1723790;81;21570;-64
2022/07/22 08:05:42;;;;;;;0.98;0.90;;;;;;;26.18;41.83;99446.13;1719617;81;21428;-64
2022/07/22 08:08:16;;;;;;;1.00;1.00;;;;;;;26.27;41.02;99450.48;1702155;83;21691;-64
2022/07/22 08:10:44;;;;;;;3.17;1.47;;;;;;;26.35;41.23;99449.63;1686216;83;21459;-65
2022/07/22 08:13:29;;;;;;;1.62;1.30;;;;;;;26.42;41.59;99451.45;1757140;80;21506;-65
2022/07/22 08:16:16;;;;;;;4.67;1.10;;;;;;;26.56;41.53;99453.96;1747602;80;21807;-64
2022/07/22 08:18:43;;;;;;;3.25;0.90;;;;;;;26.70;40.78;99455.11;1756538;80;21009;-66
2022/07/22 08:21:12;;;;;;;1.37;1.00;;;;;;;26.75;39.62;99457.30;1757424;80;21447;-65
2022/07/22 08:23:40;;;;;;;2.75;1.02;;;;;;;26.81;39.94;99455.24;1734821;80;21609;-64
2022/07/22 08:26:07;;;;;;;2.03;1.17;;;;;;;26.82;40.05;99451.52;1724463;81;21493;-65
2022/07/22 08:28:34;;;;;;;4.25;1.10;;;;;;;26.84;39.60;99454.88;1721976;81;21969;-65
2022/07/22 08:31:01;;;;;;;1.90;1.00;;;;;;;26.86;40.39;99452.00;1716662;81;21602;-65
2022/07/22 08:33:28;;;;;;;2.22;1.10;;;;;;;26.89;39.71;99450.31;1723248;81;21464;-67
2022/07/22 08:35:56;;;;;;;;;;;;;;;26.87;39.74;99449.66;1724545;81;21454;-66
2022/07/22 08:38:23;;;;;;;1.95;1.60;;;;;;;26.93;39.41;99452.98;1717851;81;20459;-65
2022/07/22 08:40:50;;;;;;;3.40;1.10;;;;;;;27.00;38.89;99452.11;1721136;81;21869;-66
2022/07/22 08:43:16;;;;;;;1.95;1.55;;;;;;;27.11;39.51;99452.23;1724813;81;21555;-67
2022/07/22 08:45:43;;;;;;;2.03;1.20;;;;;;;27.19;39.61;99444.59;1733050;81;21637;-66
2022/07/22 08:48:10;;;;;;;1.87;0.93;;;;;;;27.15;38.66;99452.20;1725822;81;21467;-68
2022/07/22 08:50:55;;;;;;;2.45;1.37;;;;;;;27.13;38.83;99447.48;1728229;81;21458;-66
2022/07/22 08:53:26;;;;;;;2.85;1.10;;;;;;;27.19;38.00;99448.12;1717293;81;21584;-66
2022/07/22 08:55:55;;;;;;;2.05;1.10;;;;;;;27.27;38.13;99450.47;1733277;81;21511;-66
2022/07/22 08:58:22;;;;;;;1.67;1.10;;;;;;;27.42;37.98;99452.73;1722056;81;21568;-66
2022/07/22 09:01:10;;;;;;;2.87;1.60;;;;;;;27.50;38.71;99444.59;1729524;81;21064;-66
2022/07/22 09:03:55;;;;;;;1.98;1.22;;;;;;;27.69;37.32;99444.61;1723610;81;21496;-66
2022/07/22 09:06:26;;;;;;;1.02;0.90;;;;;;;27.73;36.68;99449.97;1719101;81;21880;-67
2022/07/22 09:09:05;;;;;;;3.02;1.10;;;;;;;27.76;36.34;99451.46;1725750;81;21542;-67
2022/07/22 09:12:06;;;;;;;4.03;1.10;;;;;;;27.76;36.53;99452.81;1656130;84;21718;-66
2022/07/22 09:14:54;;;;;;;2.58;1.20;;;;;;;27.83;36.05;99450.23;1655493;85;21715;-67
2022/07/22 09:17:38;;;;;;;1.62;1.30;;;;;;;27.87;36.17;99451.03;1704918;80;21625;-67
2022/07/22 09:20:23;;;;;;;1.98;1.00;;;;;;;27.83;37.15;99451.07;1716034;81;21686;-65
2022/07/22 09:23:17;;;;;;;1.32;1.22;;;;;;;27.84;36.79;99442.45;1735528;80;21517;-65
2022/07/22 09:25:46;;;;;;;3.00;1.05;;;;;;;27.82;36.70;99456.65;1754188;80;21558;-66
2022/07/22 09:28:29;;;;;;;1.27;0.98;;;;;;;27.83;36.52;99457.83;1753039;80;21434;-66
2022/07/22 09:31:33;;;;;;;3.17;1.10;;;;;;;27.77;36.69;99455.34;1698714;83;21459;-65
2022/07/22 09:34:29;;;;;;;2.27;1.20;;;;;;;27.79;37.78;99458.38;1698266;83;21850;-65
2022/07/22 09:36:59;;;;;;;1.98;1.20;;;;;;;27.85;37.45;99458.48;1691710;83;21631;-66
2022/07/22 09:39:30;;;;;;;1.65;1.00;;;;;;;27.94;36.58;99462.82;1716900;82;21054;-66
2022/07/22 09:41:59;;;;;;;4.95;1.20;;;;;;;28.02;36.21;99470.53;1716633;82;21546;-67
2022/07/22 09:44:26;;;;;;;5.15;1.00;;;;;;;28.04;37.16;99467.13;1713299;82;21085;-64
2022/07/22 09:46:55;;;;;;;2.40;1.07;;;;;;;28.18;36.67;99455.52;1751986;80;21916;-69
2022/07/22 09:49:40;;;;;;;2.08;0.90;;;;;;;28.30;36.18;99464.01;1749135;80;21077;-65
2022/07/22 09:52:26;;;;;;;3.70;1.45;;;;;;;28.31;35.35;99457.56;1755794;80;21057;-67
2022/07/22 09:55:04;;;;;;;3.70;1.00;;;;;;;28.31;36.17;99461.13;1760650;79;21554;-68
2022/07/22 09:57:31;;;;;;;5.00;1.25;;;;;;;28.30;35.96;99462.66;1755247;80;21495;-69
2022/07/22 09:59:57;;;;;;;1.93;1.10;;;;;;;28.30;35.85;99466.71;1749667;80;21767;-69
2022/07/22 10:02:51;;;;;;;2.15;1.10;;;;;;;28.29;35.39;99469.94;1752672;80;28903;-69
2022/07/22 10:05:29;;;;;;;3.20;1.05;;;;;;;28.31;35.48;99467.02;1753826;80;21626;-66
2022/07/22 10:07:56;;;;;;;2.02;1.10;;;;;;;28.29;35.16;99463.17;1760415;80;21642;-71
2022/07/22 10:10:25;;;;;;;5.75;1.02;;;;;;;28.31;35.39;99468.37;1753916;80;21423;-68
2022/07/22 10:12:55;;;;;;;2.10;1.25;;;;;;;28.37;35.28;99464.09;1757388;80;22151;-69
2022/07/22 10:15:24;;;;;;;2.33;1.30;;;;;;;28.44;35.95;99469.92;1750227;80;20952;-68
2022/07/22 10:17:55;;;;;;;4.12;1.07;;;;;;;28.58;35.47;99466.95;1758623;80;21527;-68
2022/07/22 10:20:25;;;;;;;1.77;0.88;;;;;;;28.64;36.63;99470.77;1755809;79;21533;-70
2022/07/22 10:22:59;;;;;;;3.58;1.20;;;;;;;28.75;36.56;99473.00;1761631;80;21557;-68
2022/07/22 10:25:29;;;;;;;2.45;0.90;;;;;;;28.84;35.94;99473.23;1761613;80;21879;-69
2022/07/22 10:28:05;;;;;;;1.10;0.82;;;;;;;28.95;36.42;99481.88;1764743;79;21613;-68
2022/07/22 10:30:35;;;;;;;2.85;1.00;;;;;;;29.03;36.18;99471.80;1762345;79;21609;-68
2022/07/22 10:33:17;;;;;;;2.77;1.22;;;;;;;29.03;34.84;99470.45;1762972;80;21672;-67
2022/07/22 10:36:02;;;;;;;2.15;0.90;;;;;;;28.97;34.93;99461.74;1760293;79;21490;-66
2022/07/22 10:38:30;;;;;;;5.22;1.10;;;;;;;28.97;35.06;99468.51;1763688;79;21896;-68
2022/07/22 10:41:04;;;;;;;5.95;1.02;;;;;;;29.01;34.97;99469.80;1758490;79;21519;-68
2022/07/22 10:43:45;;;;;;;1.77;1.20;;;;;;;29.08;34.88;99470.72;1768238;79;21561;-69
2022/07/22 10:46:12;;;;;;;3.75;1.22;;;;;;;29.19;34.54;99468.57;1770292;79;21526;-68
2022/07/22 10:48:44;;;;;;;;;;;;;;;29.15;34.03;99465.92;1760447;79;21621;-65
2022/07/22 10:51:15;;;;;;;1.42;1.10;;;;;;;29.12;34.28;99473.37;1760122;79;22026;-67
2022/07/22 10:53:59;;;;;;;2.42;0.98;;;;;;;29.15;35.05;99468.11;1764244;80;20946;-66
2022/07/22 10:56:35;;;;;;;2.80;1.30;;;;;;;29.19;34.87;99480.75;1758757;79;21584;-66
2022/07/22 10:59:15;;;;;;;1.12;1.00;;;;;;;29.26;35.06;99474.38;1769923;79;21746;-67
2022/07/22 11:01:45;;;;;;;2.83;1.00;;;;;;;29.37;34.92;99483.88;1767657;79;20982;-70
2022/07/22 11:04:25;;;;;;;4.40;1.10;;;;;;;29.41;34.04;99480.28;1759836;79;22390;-70
2022/07/22 11:06:55;;;;;;;1.77;1.17;;;;;;;29.38;34.12;99477.42;1767951;79;20989;-66
2022/07/22 11:09:26;;;;;;;3.27;1.12;;;;;;;29.40;34.58;99477.23;1755486;80;21449;-72
2022/07/22 11:11:54;;;;;;;4.10;1.27;;;;;;;29.37;34.30;99475.76;1767476;79;21464;-71
2022/07/22 11:14:34;;;;;;;4.70;1.30;;;;;;;29.41;34.41;99470.28;1769978;79;21004;-69
2022/07/22 11:17:10;;;;;;;1.07;1.07;;;;;;;29.43;34.26;99466.86;1763405;79;22196;-67
2022/07/22 11:19:38;;;;;;;2.77;1.10;;;;;;;29.38;34.08;99478.77;1755658;80;21564;-69
2022/07/22 11:22:09;;;;;;;2.52;1.27;;;;;;;29.41;34.26;99475.69;1752745;80;21524;-68
2022/07/22 11:24:36;;;;;;;2.80;1.10;;;;;;;29.45;34.70;99475.63;1759979;80;21589;-68
2022/07/22 11:27:04;;;;;;;;;;;;;;;29.49;34.31;99477.44;1770865;80;21723;-70
2022/07/22 11:29:35;;;;;;;1.27;1.17;;;;;;;29.48;34.80;99479.31;1761670;80;21755;-68
2022/07/22 11:32:04;;;;;;;4.25;1.10;;;;;;;29.52;34.63;99473.00;1762994;79;21432;-68
2022/07/22 11:37:42;;;;;;;4.00;1.12;;;;;;;29.42;34.38;99474.67;1828081;76;23104;-67
2022/07/22 11:40:10;;;;;;;4.20;0.98;;;;;;;29.51;33.98;99479.44;1803572;77;21601;-67
2022/07/22 11:42:38;;;;;;;1.75;1.00;;;;;;;29.53;34.24;99484.66;1812793;77;21888;-67
2022/07/22 11:45:05;;;;;;;;;;;;;;;29.60;34.86;99479.63;1805267;77;21495;-67
2022/07/22 11:47:32;;;;;;;2.67;1.12;;;;;;;29.63;34.71;99472.48;1795789;78;20423;-67